sensor_id;sensor_type;location;lat;lon;timestamp;P1;durP1;ratioP1;P2;durP2;ratioP2
71296;SDS011;59082;50.658;4.608;2022-09-27T04:58:55;5.43;;;3.95;;
71296;SDS011;59082;50.658;4.608;2022-09-27T05:01:22;4.88;;;3.35;;
71296;SDS011;59082;50.658;4.608;2022-09-27T05:03:48;4.47;;;4.00;;
71296;SDS011;59082;50.658;4.608;2022-09-27T05:06:13;5.80;;;3.03;;
71296;SDS011;59082;50.658;4.608;2022-09-27T05:08:39;7.22;;;4.18;;
71296;SDS011;59082;50.658;4.608;2022-09-27T05:11:04;6.63;;;4.30;;
71296;SDS011;59082;50.658;4.608;2022-09-27T05:13:30;4.93;;;3.50;;
71296;SDS011;59082;50.658;4.608;2022-09-27T05:16:00;5.32;;;3.85;;
71296;SDS011;59082;50.658;4.608;2022-09-27T05:18:27;6.20;;;3.60;;
71296;SDS011;59082;50.658;4.608;2022-09-27T05:20:53;4.97;;;3.13;;
71296;SDS011;59082;50.658;4.608;2022-09-27T05:23:20;5.50;;;3.33;;
71296;SDS011;59082;50.658;4.608;2022-09-27T05:25:46;4.88;;;2.92;;
71296;SDS011;59082;50.658;4.608;2022-09-27T05:28:11;7.70;;;3.40;;
71296;SDS011;59082;50.658;4.608;2022-09-27T05:30:37;5.10;;;3.07;;
71296;SDS011;59082;50.658;4.608;2022-09-27T05:33:03;4.70;;;2.92;;
71296;SDS011;59082;50.658;4.608;2022-09-27T05:35:29;5.50;;;3.67;;
71296;SDS011;59082;50.658;4.608;2022-09-27T05:37:58;5.30;;;3.57;;
71296;SDS011;59082;50.658;4.608;2022-09-27T05:40:24;4.07;;;2.60;;
71296;SDS011;59082;50.658;4.608;2022-09-27T05:42:51;3.67;;;2.50;;
71296;SDS011;59082;50.658;4.608;2022-09-27T05:45:17;4.87;;;2.70;;
71296;SDS011;59082;50.658;4.608;2022-09-27T05:47:51;5.70;;;2.20;;
71296;SDS011;59082;50.658;4.608;2022-09-27T05:50:18;5.50;;;2.20;;
71296;SDS011;59082;50.658;4.608;2022-09-27T05:52:43;3.40;;;2.70;;
71296;SDS011;59082;50.658;4.608;2022-09-27T05:55:09;3.80;;;2.33;;
71296;SDS011;59082;50.658;4.608;2022-09-27T05:57:35;3.30;;;3.00;;
71296;SDS011;59082;50.658;4.608;2022-09-27T06:00:00;3.15;;;2.80;;
71296;SDS011;59082;50.658;4.608;2022-09-27T06:02:26;5.57;;;2.77;;
71296;SDS011;59082;50.658;4.608;2022-09-27T06:04:52;5.55;;;2.65;;
71296;SDS011;59082;50.658;4.608;2022-09-27T06:07:18;4.72;;;2.28;;
71296;SDS011;59082;50.658;4.608;2022-09-27T06:09:44;5.83;;;2.70;;
71296;SDS011;59082;50.658;4.608;2022-09-27T06:12:10;4.10;;;3.20;;
71296;SDS011;59082;50.658;4.608;2022-09-27T06:14:36;4.75;;;3.17;;
71296;SDS011;59082;50.658;4.608;2022-09-27T06:17:02;4.20;;;2.55;;
71296;SDS011;59082;50.658;4.608;2022-09-27T06:19:28;7.60;;;3.67;;
71296;SDS011;59082;50.658;4.608;2022-09-27T06:21:54;10.60;;;4.17;;
71296;SDS011;59082;50.658;4.608;2022-09-27T06:24:19;6.37;;;4.33;;
71296;SDS011;59082;50.658;4.608;2022-09-27T06:26:45;6.63;;;4.95;;
71296;SDS011;59082;50.658;4.608;2022-09-27T06:29:11;6.00;;;4.83;;
71296;SDS011;59082;50.658;4.608;2022-09-27T06:31:36;5.80;;;3.00;;
71296;SDS011;59082;50.658;4.608;2022-09-27T06:34:02;5.63;;;4.43;;
71296;SDS011;59082;50.658;4.608;2022-09-27T06:36:27;7.53;;;4.77;;
71296;SDS011;59082;50.658;4.608;2022-09-27T06:38:53;8.52;;;5.68;;
71296;SDS011;59082;50.658;4.608;2022-09-27T06:41:19;6.90;;;5.17;;
71296;SDS011;59082;50.658;4.608;2022-09-27T06:43:44;7.80;;;5.73;;
71296;SDS011;59082;50.658;4.608;2022-09-27T06:46:12;8.77;;;5.93;;
71296;SDS011;59082;50.658;4.608;2022-09-27T06:48:39;7.75;;;5.45;;
71296;SDS011;59082;50.658;4.608;2022-09-27T06:51:04;10.27;;;5.60;;
71296;SDS011;59082;50.658;4.608;2022-09-27T06:53:31;8.37;;;5.60;;
71296;SDS011;59082;50.658;4.608;2022-09-27T06:56:00;9.00;;;6.30;;
71296;SDS011;59082;50.658;4.608;2022-09-27T06:58:26;11.23;;;5.75;;
71296;SDS011;59082;50.658;4.608;2022-09-27T07:01:11;9.07;;;5.83;;
71296;SDS011;59082;50.658;4.608;2022-09-27T07:03:36;9.95;;;5.45;;
71296;SDS011;59082;50.658;4.608;2022-09-27T07:06:08;15.45;;;6.22;;
71296;SDS011;59082;50.658;4.608;2022-09-27T07:08:39;12.67;;;5.03;;
71296;SDS011;59082;50.658;4.608;2022-09-27T07:11:05;6.90;;;4.38;;
71296;SDS011;59082;50.658;4.608;2022-09-27T07:13:32;10.60;;;5.85;;
71296;SDS011;59082;50.658;4.608;2022-09-27T07:15:59;10.43;;;5.50;;
71296;SDS011;59082;50.658;4.608;2022-09-27T07:18:25;6.90;;;5.00;;
71296;SDS011;59082;50.658;4.608;2022-09-27T07:20:51;8.13;;;5.43;;
71296;SDS011;59082;50.658;4.608;2022-09-27T07:23:17;7.45;;;5.03;;
71296;SDS011;59082;50.658;4.608;2022-09-27T07:25:43;5.10;;;4.50;;
71296;SDS011;59082;50.658;4.608;2022-09-27T07:28:11;7.72;;;4.38;;
71296;SDS011;59082;50.658;4.608;2022-09-27T07:30:39;5.10;;;3.83;;
71296;SDS011;59082;50.658;4.608;2022-09-27T07:33:06;6.32;;;4.70;;
71296;SDS011;59082;50.658;4.608;2022-09-27T07:35:33;8.50;;;5.03;;
71296;SDS011;59082;50.658;4.608;2022-09-27T07:38:01;7.53;;;5.22;;
71296;SDS011;59082;50.658;4.608;2022-09-27T07:40:27;9.23;;;6.40;;
71296;SDS011;59082;50.658;4.608;2022-09-27T07:42:54;10.10;;;6.63;;
71296;SDS011;59082;50.658;4.608;2022-09-27T07:45:20;10.02;;;5.45;;
71296;SDS011;59082;50.658;4.608;2022-09-27T07:47:47;5.18;;;4.68;;
71296;SDS011;59082;50.658;4.608;2022-09-27T07:50:13;7.13;;;4.85;;
71296;SDS011;59082;50.658;4.608;2022-09-27T07:52:42;5.70;;;3.70;;
71296;SDS011;59082;50.658;4.608;2022-09-27T07:55:11;4.95;;;4.40;;
71296;SDS011;59082;50.658;4.608;2022-09-27T07:57:38;4.70;;;4.20;;
71296;SDS011;59082;50.658;4.608;2022-09-27T08:00:05;7.17;;;4.13;;
71296;SDS011;59082;50.658;4.608;2022-09-27T08:02:35;4.47;;;3.95;;
71296;SDS011;59082;50.658;4.608;2022-09-27T08:05:00;7.35;;;3.95;;
71296;SDS011;59082;50.658;4.608;2022-09-27T08:07:27;4.10;;;2.75;;
71296;SDS011;59082;50.658;4.608;2022-09-27T08:09:54;5.70;;;3.30;;
71296;SDS011;59082;50.658;4.608;2022-09-27T08:12:19;7.38;;;3.33;;
71296;SDS011;59082;50.658;4.608;2022-09-27T08:14:46;4.47;;;3.60;;
71296;SDS011;59082;50.658;4.608;2022-09-27T08:17:12;5.03;;;3.10;;
71296;SDS011;59082;50.658;4.608;2022-09-27T08:19:38;3.90;;;3.50;;
71296;SDS011;59082;50.658;4.608;2022-09-27T08:22:05;5.75;;;2.97;;
71296;SDS011;59082;50.658;4.608;2022-09-27T08:24:31;6.70;;;3.30;;
71296;SDS011;59082;50.658;4.608;2022-09-27T08:26:57;4.78;;;3.08;;
71296;SDS011;59082;50.658;4.608;2022-09-27T08:29:24;4.88;;;3.03;;
71296;SDS011;59082;50.658;4.608;2022-09-27T08:31:50;5.40;;;3.87;;
71296;SDS011;59082;50.658;4.608;2022-09-27T08:34:16;5.60;;;3.17;;
71296;SDS011;59082;50.658;4.608;2022-09-27T08:36:42;6.30;;;2.80;;
71296;SDS011;59082;50.658;4.608;2022-09-27T08:39:08;4.45;;;2.97;;
71296;SDS011;59082;50.658;4.608;2022-09-27T08:41:46;4.53;;;3.37;;
71296;SDS011;59082;50.658;4.608;2022-09-27T08:55:40;4.53;;;3.13;;
71296;SDS011;59082;50.658;4.608;2022-09-27T09:01:01;4.22;;;2.60;;
71296;SDS011;59082;50.658;4.608;2022-09-27T09:03:28;5.10;;;2.57;;
71296;SDS011;59082;50.658;4.608;2022-09-27T09:09:02;4.50;;;2.15;;
71296;SDS011;59082;50.658;4.608;2022-09-27T09:11:42;4.35;;;1.85;;
71296;SDS011;59082;50.658;4.608;2022-09-27T09:14:32;4.60;;;2.20;;
71296;SDS011;59082;50.658;4.608;2022-09-27T09:25:36;2.42;;;2.22;;
71296;SDS011;59082;50.658;4.608;2022-09-27T09:28:16;3.42;;;2.03;;
71296;SDS011;59082;50.658;4.608;2022-09-27T09:31:05;3.00;;;2.13;;
71296;SDS011;59082;50.658;4.608;2022-09-27T09:33:51;5.05;;;2.45;;
71296;SDS011;59082;50.658;4.608;2022-09-27T09:44:23;1.73;;;1.47;;
71296;SDS011;59082;50.658;4.608;2022-09-27T09:50:27;3.58;;;2.05;;
71296;SDS011;59082;50.658;4.608;2022-09-27T09:53:19;3.60;;;1.58;;
71296;SDS011;59082;50.658;4.608;2022-09-27T09:55:50;4.13;;;2.08;;
71296;SDS011;59082;50.658;4.608;2022-09-27T09:58:28;3.23;;;1.70;;
71296;SDS011;59082;50.658;4.608;2022-09-27T10:01:08;4.38;;;1.67;;
71296;SDS011;59082;50.658;4.608;2022-09-27T10:03:40;3.15;;;2.20;;
71296;SDS011;59082;50.658;4.608;2022-09-27T10:06:07;2.40;;;2.00;;
71296;SDS011;59082;50.658;4.608;2022-09-27T10:08:34;2.30;;;1.67;;
71296;SDS011;59082;50.658;4.608;2022-09-27T10:11:00;2.80;;;1.50;;
71296;SDS011;59082;50.658;4.608;2022-09-27T10:13:26;2.97;;;1.50;;
71296;SDS011;59082;50.658;4.608;2022-09-27T10:15:53;3.13;;;2.03;;
71296;SDS011;59082;50.658;4.608;2022-09-27T10:18:26;2.78;;;2.30;;
71296;SDS011;59082;50.658;4.608;2022-09-27T10:20:55;3.10;;;1.57;;
71296;SDS011;59082;50.658;4.608;2022-09-27T10:23:24;2.42;;;2.05;;
71296;SDS011;59082;50.658;4.608;2022-09-27T10:25:57;2.70;;;1.52;;
71296;SDS011;59082;50.658;4.608;2022-09-27T10:28:25;3.08;;;1.95;;
71296;SDS011;59082;50.658;4.608;2022-09-27T10:30:55;4.43;;;2.22;;
71296;SDS011;59082;50.658;4.608;2022-09-27T10:33:22;4.20;;;2.20;;
71296;SDS011;59082;50.658;4.608;2022-09-27T10:35:47;3.13;;;2.00;;
71296;SDS011;59082;50.658;4.608;2022-09-27T10:40:41;3.97;;;1.58;;
71296;SDS011;59082;50.658;4.608;2022-09-27T10:43:23;2.57;;;1.77;;
71296;SDS011;59082;50.658;4.608;2022-09-27T10:48:25;2.22;;;1.33;;
71296;SDS011;59082;50.658;4.608;2022-09-27T10:51:00;3.97;;;1.10;;
71296;SDS011;59082;50.658;4.608;2022-09-27T10:53:28;4.67;;;1.40;;
71296;SDS011;59082;50.658;4.608;2022-09-27T10:55:55;3.85;;;1.80;;
71296;SDS011;59082;50.658;4.608;2022-09-27T11:00:56;3.80;;;2.65;;
71296;SDS011;59082;50.658;4.608;2022-09-27T11:03:25;6.32;;;2.55;;
71296;SDS011;59082;50.658;4.608;2022-09-27T11:05:53;3.30;;;1.50;;
71296;SDS011;59082;50.658;4.608;2022-09-27T11:08:21;7.70;;;1.95;;
71296;SDS011;59082;50.658;4.608;2022-09-27T11:13:31;7.22;;;1.95;;
71296;SDS011;59082;50.658;4.608;2022-09-27T11:18:57;2.60;;;2.20;;
71296;SDS011;59082;50.658;4.608;2022-09-27T11:24:18;2.80;;;2.13;;
71296;SDS011;59082;50.658;4.608;2022-09-27T11:37:45;2.83;;;1.40;;
71296;SDS011;59082;50.658;4.608;2022-09-27T11:40:36;4.05;;;0.90;;
71296;SDS011;59082;50.658;4.608;2022-09-27T11:57:21;2.25;;;0.90;;
71296;SDS011;59082;50.658;4.608;2022-09-27T12:00:15;1.30;;;0.70;;
71296;SDS011;59082;50.658;4.608;2022-09-27T12:02:55;2.08;;;1.63;;
71296;SDS011;59082;50.658;4.608;2022-09-27T12:14:32;1.43;;;0.57;;
71296;SDS011;59082;50.658;4.608;2022-09-27T12:17:04;1.30;;;0.43;;
71296;SDS011;59082;50.658;4.608;2022-09-27T12:19:38;2.08;;;0.32;;
71296;SDS011;59082;50.658;4.608;2022-09-27T12:22:06;1.02;;;0.45;;
71296;SDS011;59082;50.658;4.608;2022-09-27T12:24:38;1.60;;;0.73;;
71296;SDS011;59082;50.658;4.608;2022-09-27T12:27:08;2.77;;;0.70;;
71296;SDS011;59082;50.658;4.608;2022-09-27T12:29:40;1.20;;;0.95;;
71296;SDS011;59082;50.658;4.608;2022-09-27T12:32:09;1.15;;;0.77;;
71296;SDS011;59082;50.658;4.608;2022-09-27T12:35:02;1.65;;;1.00;;
71296;SDS011;59082;50.658;4.608;2022-09-27T12:40:19;2.97;;;0.90;;
71296;SDS011;59082;50.658;4.608;2022-09-27T12:43:23;5.38;;;2.05;;
71296;SDS011;59082;50.658;4.608;2022-09-27T13:02:21;2.67;;;0.90;;
71296;SDS011;59082;50.658;4.608;2022-09-27T13:12:57;3.83;;;1.63;;
71296;SDS011;59082;50.658;4.608;2022-09-27T13:15:30;4.78;;;1.48;;
71296;SDS011;59082;50.658;4.608;2022-09-27T13:17:59;1.88;;;1.42;;
71296;SDS011;59082;50.658;4.608;2022-09-27T13:20:39;3.97;;;1.57;;
71296;SDS011;59082;50.658;4.608;2022-09-27T13:30:58;7.75;;;2.53;;
71296;SDS011;59082;50.658;4.608;2022-09-27T13:41:26;4.40;;;1.80;;
71296;SDS011;59082;50.658;4.608;2022-09-27T13:49:56;4.57;;;2.22;;
71296;SDS011;59082;50.658;4.608;2022-09-27T13:58:55;4.13;;;1.85;;
71296;SDS011;59082;50.658;4.608;2022-09-27T14:01:02;3.07;;;1.40;;
71296;SDS011;59082;50.658;4.608;2022-09-27T14:03:49;5.15;;;2.30;;
71296;SDS011;59082;50.658;4.608;2022-09-27T14:06:30;4.35;;;1.75;;
71296;SDS011;59082;50.658;4.608;2022-09-27T14:09:03;2.92;;;2.25;;
71296;SDS011;59082;50.658;4.608;2022-09-27T14:11:33;6.43;;;2.88;;
71296;SDS011;59082;50.658;4.608;2022-09-27T14:14:04;2.50;;;2.17;;
71296;SDS011;59082;50.658;4.608;2022-09-27T14:16:32;4.85;;;2.25;;
71296;SDS011;59082;50.658;4.608;2022-09-27T14:19:02;3.63;;;1.80;;
71296;SDS011;59082;50.658;4.608;2022-09-27T14:21:35;2.83;;;1.73;;
71296;SDS011;59082;50.658;4.608;2022-09-27T14:24:21;7.32;;;2.25;;
71296;SDS011;59082;50.658;4.608;2022-09-27T14:29:50;7.78;;;1.40;;
71296;SDS011;59082;50.658;4.608;2022-09-27T14:32:32;3.78;;;1.50;;
71296;SDS011;59082;50.658;4.608;2022-09-27T14:35:12;7.25;;;1.98;;
71296;SDS011;59082;50.658;4.608;2022-09-27T14:37:59;5.93;;;1.30;;
71296;SDS011;59082;50.658;4.608;2022-09-27T14:40:27;6.37;;;1.57;;
71296;SDS011;59082;50.658;4.608;2022-09-27T14:42:57;3.90;;;1.15;;
71296;SDS011;59082;50.658;4.608;2022-09-27T14:45:34;5.72;;;1.55;;
71296;SDS011;59082;50.658;4.608;2022-09-27T14:48:19;3.78;;;1.30;;
71296;SDS011;59082;50.658;4.608;2022-09-27T14:51:01;7.97;;;1.83;;
71296;SDS011;59082;50.658;4.608;2022-09-27T14:53:43;7.10;;;2.27;;
71296;SDS011;59082;50.658;4.608;2022-09-27T14:56:17;3.20;;;1.17;;
71296;SDS011;59082;50.658;4.608;2022-09-27T14:58:48;3.58;;;1.52;;
71296;SDS011;59082;50.658;4.608;2022-09-27T15:01:18;3.03;;;1.20;;
71296;SDS011;59082;50.658;4.608;2022-09-27T15:03:45;5.43;;;1.55;;
71296;SDS011;59082;50.658;4.608;2022-09-27T15:06:13;5.50;;;1.30;;
71296;SDS011;59082;50.658;4.608;2022-09-27T15:08:43;4.55;;;1.08;;
71296;SDS011;59082;50.658;4.608;2022-09-27T15:11:13;6.88;;;1.45;;
71296;SDS011;59082;50.658;4.608;2022-09-27T15:13:45;5.10;;;1.90;;
71296;SDS011;59082;50.658;4.608;2022-09-27T15:16:13;3.80;;;1.55;;
71296;SDS011;59082;50.658;4.608;2022-09-27T15:19:01;4.63;;;1.30;;
71296;SDS011;59082;50.658;4.608;2022-09-27T15:21:40;6.43;;;1.33;;
71296;SDS011;59082;50.658;4.608;2022-09-27T15:24:34;6.53;;;1.25;;
71296;SDS011;59082;50.658;4.608;2022-09-27T15:27:21;3.27;;;1.67;;
71296;SDS011;59082;50.658;4.608;2022-09-27T15:29:51;3.28;;;0.80;;
71296;SDS011;59082;50.658;4.608;2022-09-27T15:32:19;3.22;;;0.98;;
71296;SDS011;59082;50.658;4.608;2022-09-27T15:34:49;3.83;;;0.75;;
71296;SDS011;59082;50.658;4.608;2022-09-27T15:37:33;6.30;;;0.60;;
71296;SDS011;59082;50.658;4.608;2022-09-27T15:40:56;5.30;;;0.90;;
71296;SDS011;59082;50.658;4.608;2022-09-27T15:43:12;3.80;;;1.10;;
71296;SDS011;59082;50.658;4.608;2022-09-27T15:45:48;4.13;;;1.52;;
71296;SDS011;59082;50.658;4.608;2022-09-27T15:48:17;2.97;;;0.98;;
71296;SDS011;59082;50.658;4.608;2022-09-27T15:50:45;3.13;;;0.60;;
71296;SDS011;59082;50.658;4.608;2022-09-27T15:55:58;3.17;;;0.77;;
71296;SDS011;59082;50.658;4.608;2022-09-27T15:58:24;5.15;;;1.40;;
71296;SDS011;59082;50.658;4.608;2022-09-27T16:03:20;4.60;;;1.43;;
71296;SDS011;59082;50.658;4.608;2022-09-27T16:05:47;2.95;;;1.40;;
71296;SDS011;59082;50.658;4.608;2022-09-27T16:08:13;3.33;;;0.93;;
71296;SDS011;59082;50.658;4.608;2022-09-27T16:10:39;2.57;;;1.63;;
71296;SDS011;59082;50.658;4.608;2022-09-27T16:13:10;2.50;;;1.73;;
71296;SDS011;59082;50.658;4.608;2022-09-27T16:15:37;3.70;;;1.48;;
71296;SDS011;59082;50.658;4.608;2022-09-27T16:18:04;4.97;;;1.80;;
71296;SDS011;59082;50.658;4.608;2022-09-27T16:20:30;2.40;;;1.48;;
71296;SDS011;59082;50.658;4.608;2022-09-27T16:22:56;3.03;;;1.37;;
71296;SDS011;59082;50.658;4.608;2022-09-27T16:25:22;3.70;;;1.05;;
71296;SDS011;59082;50.658;4.608;2022-09-27T16:27:47;2.50;;;0.87;;
71296;SDS011;59082;50.658;4.608;2022-09-27T16:30:14;3.42;;;0.60;;
71296;SDS011;59082;50.658;4.608;2022-09-27T16:32:44;2.47;;;0.77;;
71296;SDS011;59082;50.658;4.608;2022-09-27T16:35:13;6.65;;;0.90;;
71296;SDS011;59082;50.658;4.608;2022-09-27T16:37:42;1.90;;;0.98;;
71296;SDS011;59082;50.658;4.608;2022-09-27T16:40:09;5.43;;;0.87;;
71296;SDS011;59082;50.658;4.608;2022-09-27T16:42:37;3.17;;;0.50;;
71296;SDS011;59082;50.658;4.608;2022-09-27T16:45:04;4.95;;;1.15;;
71296;SDS011;59082;50.658;4.608;2022-09-27T16:47:30;1.98;;;0.70;;
71296;SDS011;59082;50.658;4.608;2022-09-27T16:49:56;4.35;;;1.02;;
71296;SDS011;59082;50.658;4.608;2022-09-27T16:52:42;2.73;;;0.77;;
71296;SDS011;59082;50.658;4.608;2022-09-27T16:55:12;3.70;;;1.25;;
71296;SDS011;59082;50.658;4.608;2022-09-27T16:57:42;3.33;;;1.65;;
71296;SDS011;59082;50.658;4.608;2022-09-27T17:00:10;4.50;;;1.30;;
71296;SDS011;59082;50.658;4.608;2022-09-27T17:02:36;7.72;;;1.02;;
71296;SDS011;59082;50.658;4.608;2022-09-27T17:05:02;3.97;;;1.20;;
71296;SDS011;59082;50.658;4.608;2022-09-27T17:07:29;4.78;;;1.52;;
71296;SDS011;59082;50.658;4.608;2022-09-27T17:09:55;5.23;;;1.83;;
71296;SDS011;59082;50.658;4.608;2022-09-27T17:12:22;7.07;;;1.60;;
71296;SDS011;59082;50.658;4.608;2022-09-27T17:14:48;6.18;;;2.53;;
71296;SDS011;59082;50.658;4.608;2022-09-27T17:17:15;6.47;;;2.92;;
71296;SDS011;59082;50.658;4.608;2022-09-27T17:19:42;6.00;;;2.15;;
71296;SDS011;59082;50.658;4.608;2022-09-27T17:22:09;5.87;;;2.37;;
71296;SDS011;59082;50.658;4.608;2022-09-27T17:24:36;3.97;;;2.00;;
71296;SDS011;59082;50.658;4.608;2022-09-27T17:27:01;5.17;;;1.40;;
71296;SDS011;59082;50.658;4.608;2022-09-27T17:29:27;4.18;;;1.33;;
71296;SDS011;59082;50.658;4.608;2022-09-27T17:31:53;9.27;;;1.50;;
71296;SDS011;59082;50.658;4.608;2022-09-27T17:34:18;2.93;;;1.17;;
71296;SDS011;59082;50.658;4.608;2022-09-27T17:36:44;4.60;;;1.30;;
71296;SDS011;59082;50.658;4.608;2022-09-27T17:39:16;5.93;;;1.23;;
71296;SDS011;59082;50.658;4.608;2022-09-27T17:41:44;6.00;;;1.27;;
71296;SDS011;59082;50.658;4.608;2022-09-27T17:44:11;3.53;;;1.10;;
71296;SDS011;59082;50.658;4.608;2022-09-27T17:46:38;7.43;;;1.70;;
71296;SDS011;59082;50.658;4.608;2022-09-27T17:49:05;4.90;;;1.70;;
71296;SDS011;59082;50.658;4.608;2022-09-27T17:51:50;3.75;;;1.85;;
71296;SDS011;59082;50.658;4.608;2022-09-27T17:54:17;6.05;;;2.47;;
71296;SDS011;59082;50.658;4.608;2022-09-27T17:56:44;4.28;;;1.77;;
71296;SDS011;59082;50.658;4.608;2022-09-27T17:59:11;4.60;;;2.10;;
71296;SDS011;59082;50.658;4.608;2022-09-27T18:01:40;6.05;;;1.55;;
71296;SDS011;59082;50.658;4.608;2022-09-27T18:04:07;9.68;;;3.85;;
71296;SDS011;59082;50.658;4.608;2022-09-27T18:06:36;6.55;;;2.55;;
71296;SDS011;59082;50.658;4.608;2022-09-27T18:09:04;4.85;;;2.15;;
71296;SDS011;59082;50.658;4.608;2022-09-27T18:11:32;6.37;;;2.07;;
71296;SDS011;59082;50.658;4.608;2022-09-27T18:13:59;4.47;;;2.03;;
71296;SDS011;59082;50.658;4.608;2022-09-27T18:16:25;5.18;;;1.77;;
71296;SDS011;59082;50.658;4.608;2022-09-27T18:18:59;6.07;;;1.40;;
71296;SDS011;59082;50.658;4.608;2022-09-27T18:21:26;5.25;;;1.80;;
71296;SDS011;59082;50.658;4.608;2022-09-27T18:23:53;8.13;;;3.83;;
71296;SDS011;59082;50.658;4.608;2022-09-27T18:26:20;6.88;;;4.32;;
71296;SDS011;59082;50.658;4.608;2022-09-27T18:28:48;6.82;;;4.03;;
71296;SDS011;59082;50.658;4.608;2022-09-27T18:31:15;5.80;;;3.50;;
71296;SDS011;59082;50.658;4.608;2022-09-27T18:33:42;4.32;;;2.40;;
71296;SDS011;59082;50.658;4.608;2022-09-27T18:38:39;5.23;;;2.50;;
71296;SDS011;59082;50.658;4.608;2022-09-27T18:41:08;4.45;;;2.33;;
71296;SDS011;59082;50.658;4.608;2022-09-27T18:43:35;4.28;;;2.90;;
71296;SDS011;59082;50.658;4.608;2022-09-27T18:46:05;5.47;;;2.63;;
71296;SDS011;59082;50.658;4.608;2022-09-27T18:48:34;5.70;;;2.70;;
71296;SDS011;59082;50.658;4.608;2022-09-27T18:51:11;9.90;;;3.38;;
71296;SDS011;59082;50.658;4.608;2022-09-27T18:53:38;5.57;;;3.45;;
71296;SDS011;59082;50.658;4.608;2022-09-27T18:56:04;6.00;;;2.08;;
71296;SDS011;59082;50.658;4.608;2022-09-27T18:58:48;6.13;;;2.93;;
71296;SDS011;59082;50.658;4.608;2022-09-27T19:01:16;6.63;;;3.13;;
71296;SDS011;59082;50.658;4.608;2022-09-27T19:03:42;4.72;;;3.00;;
71296;SDS011;59082;50.658;4.608;2022-09-27T19:06:18;5.93;;;3.10;;
71296;SDS011;59082;50.658;4.608;2022-09-27T19:08:46;5.67;;;2.93;;
71296;SDS011;59082;50.658;4.608;2022-09-27T19:11:15;4.25;;;2.53;;
71296;SDS011;59082;50.658;4.608;2022-09-27T19:13:43;5.88;;;2.53;;
71296;SDS011;59082;50.658;4.608;2022-09-27T19:16:13;3.28;;;2.53;;
71296;SDS011;59082;50.658;4.608;2022-09-27T19:18:38;4.93;;;3.17;;
71296;SDS011;59082;50.658;4.608;2022-09-27T19:21:05;4.72;;;2.55;;
71296;SDS011;59082;50.658;4.608;2022-09-27T19:23:35;4.43;;;3.10;;
71296;SDS011;59082;50.658;4.608;2022-09-27T19:26:01;4.03;;;3.50;;
71296;SDS011;59082;50.658;4.608;2022-09-27T19:28:32;6.55;;;2.70;;
71296;SDS011;59082;50.658;4.608;2022-09-27T19:31:05;7.68;;;3.47;;
71296;SDS011;59082;50.658;4.608;2022-09-27T19:33:33;5.15;;;3.90;;
71296;SDS011;59082;50.658;4.608;2022-09-27T19:36:00;6.82;;;4.43;;
71296;SDS011;59082;50.658;4.608;2022-09-27T19:38:28;6.70;;;4.33;;
71296;SDS011;59082;50.658;4.608;2022-09-27T19:40:58;7.55;;;3.97;;
71296;SDS011;59082;50.658;4.608;2022-09-27T19:43:24;8.05;;;4.00;;
71296;SDS011;59082;50.658;4.608;2022-09-27T19:45:49;8.73;;;3.87;;
71296;SDS011;59082;50.658;4.608;2022-09-27T19:48:15;8.18;;;4.55;;
71296;SDS011;59082;50.658;4.608;2022-09-27T19:50:40;9.47;;;4.90;;
71296;SDS011;59082;50.658;4.608;2022-09-27T19:53:06;8.77;;;4.60;;
71296;SDS011;59082;50.658;4.608;2022-09-27T19:55:32;10.90;;;6.40;;
71296;SDS011;59082;50.658;4.608;2022-09-27T19:57:57;9.63;;;5.17;;
71296;SDS011;59082;50.658;4.608;2022-09-27T20:00:23;12.68;;;8.25;;
71296;SDS011;59082;50.658;4.608;2022-09-27T20:02:49;10.90;;;5.83;;
71296;SDS011;59082;50.658;4.608;2022-09-27T20:05:14;6.38;;;4.65;;
71296;SDS011;59082;50.658;4.608;2022-09-27T20:07:42;11.68;;;7.20;;
71296;SDS011;59082;50.658;4.608;2022-09-27T20:10:12;7.40;;;5.07;;
71296;SDS011;59082;50.658;4.608;2022-09-27T20:12:38;7.85;;;4.88;;
71296;SDS011;59082;50.658;4.608;2022-09-27T20:15:03;16.93;;;7.90;;
71296;SDS011;59082;50.658;4.608;2022-09-27T20:17:30;29.92;;;12.98;;
71296;SDS011;59082;50.658;4.608;2022-09-27T20:19:56;20.58;;;9.10;;
71296;SDS011;59082;50.658;4.608;2022-09-27T20:22:22;19.00;;;7.47;;
71296;SDS011;59082;50.658;4.608;2022-09-27T20:24:48;16.27;;;10.33;;
71296;SDS011;59082;50.658;4.608;2022-09-27T20:27:13;14.13;;;5.73;;
71296;SDS011;59082;50.658;4.608;2022-09-27T20:29:38;10.97;;;5.20;;
71296;SDS011;59082;50.658;4.608;2022-09-27T20:32:04;9.53;;;3.90;;
71296;SDS011;59082;50.658;4.608;2022-09-27T20:34:29;11.47;;;5.40;;
71296;SDS011;59082;50.658;4.608;2022-09-27T20:36:55;8.82;;;4.53;;
71296;SDS011;59082;50.658;4.608;2022-09-27T20:39:21;10.87;;;4.40;;
71296;SDS011;59082;50.658;4.608;2022-09-27T20:41:47;12.70;;;4.50;;
71296;SDS011;59082;50.658;4.608;2022-09-27T20:44:14;8.00;;;4.05;;
71296;SDS011;59082;50.658;4.608;2022-09-27T20:46:42;9.13;;;4.53;;
71296;SDS011;59082;50.658;4.608;2022-09-27T20:49:10;8.82;;;4.03;;
71296;SDS011;59082;50.658;4.608;2022-09-27T20:51:39;11.23;;;5.35;;
71296;SDS011;59082;50.658;4.608;2022-09-27T20:54:06;9.80;;;4.50;;
71296;SDS011;59082;50.658;4.608;2022-09-27T20:56:34;9.30;;;4.78;;
71296;SDS011;59082;50.658;4.608;2022-09-27T20:59:04;9.27;;;4.10;;
71296;SDS011;59082;50.658;4.608;2022-09-27T21:01:32;7.47;;;4.97;;
71296;SDS011;59082;50.658;4.608;2022-09-27T21:03:58;8.82;;;3.80;;
71296;SDS011;59082;50.658;4.608;2022-09-27T21:06:25;9.60;;;4.47;;
71296;SDS011;59082;50.658;4.608;2022-09-27T21:08:51;8.47;;;4.90;;
71296;SDS011;59082;50.658;4.608;2022-09-27T21:11:17;9.80;;;5.43;;
71296;SDS011;59082;50.658;4.608;2022-09-27T21:13:44;8.18;;;5.70;;
71296;SDS011;59082;50.658;4.608;2022-09-27T21:16:12;8.68;;;5.57;;
71296;SDS011;59082;50.658;4.608;2022-09-27T21:18:40;9.10;;;4.72;;
71296;SDS011;59082;50.658;4.608;2022-09-27T21:21:07;11.07;;;6.47;;
71296;SDS011;59082;50.658;4.608;2022-09-27T21:23:35;9.73;;;4.57;;
